Time;durP1;ratioP1;P1;durP2;ratioP2;P2;SDS_P1;SDS_P2;PMS_P1;PMS_P2;Temp;Humidity;BMP_temperature;BMP_pressure;BME280_temperature;BME280_humidity;BME280_pressure;Samples;Min_cycle;Max_cycle;Signal;HPM_P1;HPM_P2
2022/02/16 00:01:02;;;;;;;71.97;44.05;;;;;;;-0.57;90.98;97992.30;1695045;84;20918;-66
2022/02/16 00:03:29;;;;;;;77.30;46.50;;;;;;;-0.61;90.92;97982.71;1695107;84;20973;-65
2022/02/16 00:05:56;;;;;;;86.25;51.55;;;;;;;-0.69;90.87;97973.81;1712925;83;21011;-65
2022/02/16 00:08:24;;;;;;;76.97;43.45;;;;;;;-0.78;90.86;97973.81;1695223;83;21378;-66
2022/02/16 00:10:50;;;;;;;77.00;44.65;;;;;;;-0.84;90.90;97979.93;1712839;83;21023;-64
2022/02/16 00:13:18;;;;;;;75.65;43.70;;;;;;;-0.90;91.12;97973.73;1695043;84;20981;-66
2022/02/16 00:15:44;;;;;;;83.50;48.75;;;;;;;-0.88;91.42;97987.97;1712979;83;20911;-67
2022/02/16 00:18:11;;;;;;;84.25;47.43;;;;;;;-0.87;91.45;97981.17;1695466;84;20878;-64
2022/02/16 00:20:37;;;;;;;53.50;32.75;;;;;;;-0.84;91.53;97981.24;1713247;83;21486;-64
2022/02/16 00:23:05;;;;;;;67.58;37.28;;;;;;;-0.82;91.68;97982.63;1695353;84;21901;-64
2022/02/16 00:25:31;;;;;;;77.90;42.58;;;;;;;-0.79;91.72;97979.58;1713062;83;20903;-62
2022/02/16 00:27:58;;;;;;;87.97;47.80;;;;;;;-0.76;91.71;97978.34;1695357;84;20918;-66
2022/02/16 00:30:25;;;;;;;87.33;47.48;;;;;;;-0.75;91.69;97979.42;1713065;83;21133;-65
2022/02/16 00:32:52;;;;;;;77.85;42.35;;;;;;;-0.75;91.57;97979.93;1695185;84;20981;-65
2022/02/16 00:35:19;;;;;;;72.45;39.48;;;;;;;-0.77;91.70;97979.34;1713110;83;21128;-64
2022/02/16 00:37:46;;;;;;;65.80;37.58;;;;;;;-0.79;91.79;97982.20;1695121;84;21024;-65
2022/02/16 00:40:12;;;;;;;73.87;41.48;;;;;;;-0.79;91.82;97982.20;1695236;84;21337;-68
2022/02/16 00:42:40;;;;;;;71.22;41.55;;;;;;;-0.79;91.74;97984.84;1713010;83;21395;-68
2022/02/16 00:45:09;;;;;;;71.72;42.23;;;;;;;-0.78;91.74;97985.65;1695290;84;21001;-66
2022/02/16 00:47:36;;;;;;;75.25;43.35;;;;;;;-0.78;91.77;97985.65;1713106;83;21674;-64
2022/02/16 00:50:04;;;;;;;68.70;40.88;;;;;;;-0.78;91.74;97992.23;1695154;83;20851;-65
2022/02/16 00:52:33;;;;;;;81.20;42.58;;;;;;;-0.76;91.75;97992.80;1695254;84;20855;-63
2022/02/16 00:55:00;;;;;;;81.72;44.40;;;;;;;-0.75;91.74;97986.50;1695314;84;21405;-64
2022/02/16 00:57:27;;;;;;;78.15;43.30;;;;;;;-0.73;91.60;97983.17;1681166;84;21081;-63
2022/02/16 00:59:55;;;;;;;72.55;42.48;;;;;;;-0.70;91.50;97984.03;1713353;83;21049;-67
2022/02/16 01:02:22;;;;;;;73.75;42.27;;;;;;;-0.69;91.43;97984.34;1695135;84;20937;-67
2022/02/16 01:04:49;;;;;;;80.83;43.50;;;;;;;-0.67;91.32;97982.29;1713254;83;20908;-63
2022/02/16 01:07:15;;;;;;;68.25;39.08;;;;;;;-0.70;91.10;97989.29;1695207;84;21560;-67
2022/02/16 01:09:42;;;;;;;62.35;39.15;;;;;;;-0.73;90.98;97989.22;1695248;84;20937;-64
2022/02/16 01:12:09;;;;;;;61.68;40.12;;;;;;;-0.73;91.00;97988.44;1712965;83;21100;-66
2022/02/16 01:14:38;;;;;;;50.73;33.70;;;;;;;-0.74;90.88;97978.92;1695051;84;20989;-67
2022/02/16 01:17:18;;;;;;;56.60;37.93;;;;;;;-0.75;90.94;97974.67;1695071;84;20989;-61
2022/02/16 01:19:50;;;;;;;52.15;35.45;;;;;;;-0.76;90.89;97971.27;1694788;84;21532;-66
2022/02/16 01:22:16;;;;;;;44.98;30.68;;;;;;;-0.74;90.83;97971.03;1695222;84;20945;-65
2022/02/16 01:24:43;;;;;;;45.65;29.12;;;;;;;-0.75;90.87;97970.22;1713323;83;21086;-66
2022/02/16 01:27:11;;;;;;;37.63;26.82;;;;;;;-0.74;90.82;97971.84;1695064;84;20898;-61
2022/02/16 01:29:38;;;;;;;43.08;29.65;;;;;;;-0.75;90.74;97959.70;1695091;84;20969;-62
2022/02/16 01:32:10;;;;;;;40.03;27.30;;;;;;;-0.73;90.71;97959.50;1693917;84;20906;-65
2022/02/16 01:34:37;;;;;;;44.03;29.75;;;;;;;-0.72;90.70;97958.46;1713325;83;21002;-63
2022/02/16 01:37:04;;;;;;;49.67;29.70;;;;;;;-0.71;90.60;97956.13;1695102;84;21747;-63
2022/02/16 01:39:30;;;;;;;58.23;35.15;;;;;;;-0.72;90.57;97951.89;1694689;84;20878;-62
2022/02/16 01:41:57;;;;;;;66.65;38.53;;;;;;;-0.75;90.57;97956.26;1694609;83;20950;-62
2022/02/16 01:44:24;;;;;;;58.08;35.55;;;;;;;-0.79;90.60;97955.09;1694684;84;20902;-64
2022/02/16 01:47:04;;;;;;;51.23;32.65;;;;;;;-0.83;90.66;97955.25;1694719;84;20978;-64
2022/02/16 01:49:33;;;;;;;43.73;28.50;;;;;;;-0.87;90.78;97949.61;1694918;84;21460;-65
2022/02/16 01:52:00;;;;;;;44.05;29.85;;;;;;;-0.86;90.82;97959.63;1694513;84;20895;-61
2022/02/16 01:54:29;;;;;;;53.23;31.33;;;;;;;-0.87;90.93;97952.74;1694688;84;20977;-62
2022/02/16 01:56:55;;;;;;;78.55;46.98;;;;;;;-0.88;90.95;97949.84;1694689;84;21004;-61
2022/02/16 01:59:24;;;;;;;77.32;46.60;;;;;;;-0.86;90.87;97947.79;1694622;84;20903;-62
2022/02/16 02:02:03;;;;;;;73.60;42.98;;;;;;;-0.84;90.85;97944.42;1676033;84;21410;-66
2022/02/16 02:04:31;;;;;;;84.60;46.65;;;;;;;-0.83;90.68;97947.36;1694522;84;20890;-66
2022/02/16 02:06:59;;;;;;;87.53;47.10;;;;;;;-0.89;90.60;97932.44;1694628;84;20981;-65
2022/02/16 02:09:27;;;;;;;90.47;48.00;;;;;;;-0.93;90.71;97940.48;1694556;84;20993;-65
2022/02/16 02:11:54;;;;;;;98.80;51.37;;;;;;;-0.97;90.78;97936.69;1694777;84;20950;-63
2022/02/16 02:14:22;;;;;;;115.08;56.95;;;;;;;-0.98;90.88;97932.44;1694654;84;21748;-65
2022/02/16 02:17:03;;;;;;;119.33;56.83;;;;;;;-0.97;90.95;97931.43;1693800;84;20917;-62
2022/02/16 02:19:32;;;;;;;97.45;53.00;;;;;;;-0.98;91.04;97927.18;1694672;84;21018;-66
2022/02/16 02:22:04;;;;;;;101.72;52.75;;;;;;;-1.01;91.03;97920.53;1694568;84;21065;-66
2022/02/16 02:24:29;;;;;;;97.78;51.50;;;;;;;-1.02;91.08;97918.13;1693918;84;20997;-65
2022/02/16 02:26:56;;;;;;;94.83;49.70;;;;;;;-1.05;91.09;97919.87;1694543;84;21022;-65
2022/02/16 02:37:04;;;;;;;83.75;42.85;;;;;;;-1.04;91.59;97922.30;1694708;83;20894;-65
2022/02/16 02:39:31;;;;;;;86.95;44.20;;;;;;;-1.00;91.79;97932.67;1694458;84;21209;-64
2022/02/16 02:41:59;;;;;;;70.75;40.15;;;;;;;-0.96;91.97;97934.34;1694566;84;20941;-62
2022/02/16 02:44:26;;;;;;;71.12;37.93;;;;;;;-0.93;92.00;97929.97;1694744;84;21501;-63
2022/02/16 02:46:53;;;;;;;75.60;40.78;;;;;;;-0.88;92.05;97926.17;1694527;84;20994;-63
2022/02/16 02:49:21;;;;;;;79.30;42.35;;;;;;;-0.82;92.06;97916.08;1694679;84;21393;-62
2022/02/16 02:51:48;;;;;;;77.17;40.40;;;;;;;-0.74;92.10;97907.91;1694791;84;21096;-62
2022/02/16 02:54:15;;;;;;;66.02;39.30;;;;;;;-0.69;92.01;97912.00;1694592;84;20878;-61
2022/02/16 02:56:43;;;;;;;72.55;39.15;;;;;;;-0.65;92.06;97921.55;1694545;83;20855;-61
2022/02/16 02:59:10;;;;;;;71.35;39.73;;;;;;;-0.62;92.11;97915.36;1694523;84;20972;-61
2022/02/16 03:01:40;;;;;;;74.35;40.83;;;;;;;-0.57;92.13;97910.74;1694566;83;20921;-65
2022/02/16 03:04:08;;;;;;;74.50;42.05;;;;;;;-0.54;92.07;97908.45;1694554;84;21121;-65
2022/02/16 03:06:35;;;;;;;64.82;37.40;;;;;;;-0.53;92.01;97908.77;1694493;84;20862;-65
2022/02/16 03:09:02;;;;;;;69.97;39.05;;;;;;;-0.50;91.99;97908.33;1694645;83;20886;-65
2022/02/16 03:11:29;;;;;;;71.57;42.23;;;;;;;-0.51;92.02;97905.90;1694583;84;20989;-60
2022/02/16 03:13:55;;;;;;;73.47;42.53;;;;;;;-0.47;92.08;97901.82;1694659;84;21137;-62
2022/02/16 03:16:24;;;;;;;69.10;39.70;;;;;;;-0.45;92.05;97904.52;1690976;84;21711;-61
2022/02/16 03:18:51;;;;;;;72.47;41.63;;;;;;;-0.41;92.04;97911.45;1694469;84;20890;-64
2022/02/16 03:21:18;;;;;;;68.37;41.65;;;;;;;-0.36;91.97;97916.34;1694529;84;20938;-61
2022/02/16 03:23:45;;;;;;;69.70;40.12;;;;;;;-0.35;91.95;97917.12;1694705;84;20945;-61
2022/02/16 03:26:12;;;;;;;78.42;41.33;;;;;;;-0.30;92.01;97918.07;1694650;84;20998;-64
2022/02/16 03:28:38;;;;;;;74.30;39.63;;;;;;;-0.22;92.02;97916.46;1694622;84;21195;-61
2022/02/16 03:31:14;;;;;;;68.50;38.80;;;;;;;-0.15;91.75;97916.36;1693469;84;21288;-62
2022/02/16 03:33:42;;;;;;;64.37;37.33;;;;;;;-0.11;91.65;97911.73;1678575;84;21429;-65
2022/02/16 03:36:12;;;;;;;59.38;36.20;;;;;;;-0.10;91.50;97918.63;1694858;84;20950;-62
2022/02/16 03:38:37;;;;;;;56.88;35.65;;;;;;;-0.09;91.53;97922.03;1694756;83;20953;-62
2022/02/16 03:41:06;;;;;;;62.78;36.80;;;;;;;-0.06;91.39;97914.51;1713447;83;21123;-64
2022/02/16 03:43:33;;;;;;;80.10;48.13;;;;;;;-0.05;91.33;97910.83;1695469;84;20974;-66
2022/02/16 03:45:59;;;;;;;83.85;48.90;;;;;;;-0.06;91.25;97919.77;1713635;83;21566;-66
2022/02/16 03:48:27;;;;;;;72.30;40.50;;;;;;;-0.03;91.33;97915.39;1695585;84;21061;-65
2022/02/16 03:50:54;;;;;;;64.58;37.73;;;;;;;0.02;91.27;97919.17;1713376;83;20911;-63
2022/02/16 03:53:23;;;;;;;58.45;36.40;;;;;;;0.07;91.12;97918.80;1695608;83;20934;-65
2022/02/16 03:55:50;;;;;;;63.95;36.88;;;;;;;0.09;90.89;97911.97;1695441;83;20993;-64
2022/02/16 03:58:17;;;;;;;65.17;38.38;;;;;;;0.04;90.69;97911.33;1713381;83;21456;-64
2022/02/16 04:00:43;;;;;;;64.70;40.30;;;;;;;-0.02;90.52;97918.29;1695507;84;21493;-62
2022/02/16 04:03:11;;;;;;;76.82;42.75;;;;;;;-0.06;90.38;97913.19;1713403;83;21023;-67
2022/02/16 04:05:40;;;;;;;65.10;40.55;;;;;;;-0.10;90.33;97917.81;1695511;84;21132;-64
2022/02/16 04:08:07;;;;;;;63.60;38.75;;;;;;;-0.12;90.42;97921.97;1713576;83;21561;-63
2022/02/16 04:10:33;;;;;;;64.37;39.42;;;;;;;-0.08;90.51;97924.47;1695581;83;20893;-68
2022/02/16 04:13:00;;;;;;;59.08;37.45;;;;;;;-0.03;90.52;97927.73;1713458;83;20955;-67
2022/02/16 04:15:28;;;;;;;58.90;36.25;;;;;;;0.02;90.51;97913.90;1695623;84;20949;-63
2022/02/16 04:17:57;;;;;;;58.30;36.05;;;;;;;0.02;90.29;97904.69;1695385;84;21127;-65
2022/02/16 04:20:24;;;;;;;54.60;36.23;;;;;;;-0.06;90.27;97903.98;1695550;83;20934;-65
2022/02/16 04:22:51;;;;;;;60.25;35.92;;;;;;;-0.07;90.33;97897.09;1695832;84;20897;-63
2022/02/16 04:25:18;;;;;;;52.75;37.13;;;;;;;-0.07;90.40;97895.77;1713459;83;21000;-66
2022/02/16 04:27:45;;;;;;;55.55;36.15;;;;;;;-0.06;90.42;97888.17;1695600;83;20874;-67
2022/02/16 04:30:12;;;;;;;61.83;38.00;;;;;;;-0.05;90.36;97889.77;1683352;84;21606;-63
2022/02/16 04:32:39;;;;;;;58.63;36.83;;;;;;;-0.09;90.31;97883.35;1713540;83;20945;-65
2022/02/16 04:35:07;;;;;;;67.20;38.92;;;;;;;-0.12;90.24;97877.75;1695670;84;21032;-63
2022/02/16 04:37:34;;;;;;;65.12;40.25;;;;;;;-0.15;90.22;97871.61;1713710;83;21396;-64
2022/02/16 04:40:01;;;;;;;61.70;38.85;;;;;;;-0.20;90.21;97873.59;1695035;84;20926;-67
2022/02/16 04:42:27;;;;;;;54.45;34.35;;;;;;;-0.26;90.38;97862.63;1694986;84;21125;-66
2022/02/16 04:44:54;;;;;;;54.25;33.53;;;;;;;-0.27;90.60;97867.63;1712901;83;20872;-67
2022/02/16 04:47:21;;;;;;;51.18;35.50;;;;;;;-0.30;90.75;97862.80;1695103;83;21414;-65
2022/02/16 04:49:48;;;;;;;55.05;34.95;;;;;;;-0.32;90.94;97860.91;1694969;84;20905;-64
2022/02/16 04:52:15;;;;;;;57.85;37.08;;;;;;;-0.34;91.03;97868.23;1712902;83;20960;-65
2022/02/16 04:54:41;;;;;;;53.10;35.38;;;;;;;-0.33;91.11;97860.61;1695092;84;21124;-64
2022/02/16 04:57:09;;;;;;;56.37;36.13;;;;;;;-0.32;91.09;97862.23;1695017;84;20938;-65
2022/02/16 04:59:41;;;;;;;63.58;39.60;;;;;;;-0.30;91.11;97860.17;1694925;84;21037;-64
2022/02/16 05:02:08;;;;;;;78.40;48.45;;;;;;;-0.31;91.07;97862.53;1712823;83;20998;-62
2022/02/16 05:04:34;;;;;;;81.95;49.40;;;;;;;-0.34;91.21;97857.70;1695217;83;20926;-61
2022/02/16 05:07:02;;;;;;;84.22;47.93;;;;;;;-0.34;91.38;97852.95;1712988;83;21114;-63
2022/02/16 05:09:29;;;;;;;72.78;43.30;;;;;;;-0.33;91.56;97852.71;1695367;84;21078;-62
2022/02/16 05:11:56;;;;;;;78.80;44.13;;;;;;;-0.30;91.61;97845.69;1713041;83;20971;-65
2022/02/16 05:14:24;;;;;;;77.25;46.13;;;;;;;-0.28;91.68;97842.31;1695423;83;21390;-63
2022/02/16 05:16:51;;;;;;;124.12;73.42;;;;;;;-0.27;91.75;97846.56;1713106;83;21517;-63
2022/02/16 05:19:18;;;;;;;85.15;47.30;;;;;;;-0.27;91.75;97846.56;1695109;83;21121;-62
2022/02/16 05:21:45;;;;;;;83.33;44.10;;;;;;;-0.26;91.77;97848.16;1713010;83;20916;-67
2022/02/16 05:24:14;;;;;;;92.30;46.65;;;;;;;-0.28;91.72;97850.22;1695069;84;20890;-64
2022/02/16 05:26:43;;;;;;;108.55;58.15;;;;;;;-0.30;91.81;97853.59;1695062;84;20871;-63
2022/02/16 05:29:11;;;;;;;105.03;60.80;;;;;;;-0.31;91.84;97853.31;1713204;83;21444;-68
2022/02/16 05:31:39;;;;;;;94.25;56.15;;;;;;;-0.34;91.83;97849.81;1695183;84;21178;-66
2022/02/16 05:34:06;;;;;;;86.97;53.15;;;;;;;-0.38;91.87;97849.97;1695045;84;20976;-68
2022/02/16 05:36:33;;;;;;;97.67;55.03;;;;;;;-0.40;92.05;97854.63;1712981;83;20911;-68
2022/02/16 05:39:00;;;;;;;86.87;52.93;;;;;;;-0.43;92.13;97847.20;1695134;83;20949;-68
2022/02/16 05:41:29;;;;;;;105.65;64.77;;;;;;;-0.44;92.16;97848.22;1713072;83;21010;-64
2022/02/16 05:43:57;;;;;;;111.60;61.28;;;;;;;-0.43;92.22;97851.16;1695080;84;21126;-66
2022/02/16 05:46:24;;;;;;;110.40;69.53;;;;;;;-0.44;92.16;97852.17;1712998;83;20864;-64
2022/02/16 05:48:51;;;;;;;118.08;77.92;;;;;;;-0.44;92.31;97854.80;1695237;84;20938;-66
2022/02/16 05:51:17;;;;;;;113.10;77.15;;;;;;;-0.46;92.21;97850.78;1713018;83;21098;-65
2022/02/16 05:53:44;;;;;;;82.30;52.23;;;;;;;-0.51;92.31;97848.83;1695370;84;20970;-64
2022/02/16 05:56:11;;;;;;;89.50;51.68;;;;;;;-0.52;92.32;97845.11;1695084;84;21090;-64
2022/02/16 05:58:38;;;;;;;92.65;54.10;;;;;;;-0.50;92.40;97858.84;1712880;83;20994;-63
2022/02/16 06:01:06;;;;;;;88.97;56.35;;;;;;;-0.49;92.49;97855.17;1695080;84;21036;-62
2022/02/16 06:03:34;;;;;;;81.97;49.95;;;;;;;-0.50;92.60;97857.52;1694480;84;21002;-61
2022/02/16 06:06:01;;;;;;;88.45;50.28;;;;;;;-0.50;92.56;97859.65;1713039;83;20935;-66
2022/02/16 06:08:28;;;;;;;94.77;56.18;;;;;;;-0.53;92.61;97866.66;1695078;84;21130;-65
2022/02/16 06:10:57;;;;;;;81.30;51.77;;;;;;;-0.52;92.62;97860.39;1712951;83;21444;-61
2022/02/16 06:13:24;;;;;;;91.97;54.95;;;;;;;-0.49;92.69;97861.23;1695164;84;20902;-62
2022/02/16 06:15:53;;;;;;;87.22;50.45;;;;;;;-0.46;92.88;97863.44;1712915;83;20963;-62
2022/02/16 06:18:21;;;;;;;92.92;54.00;;;;;;;-0.41;92.80;97850.41;1695276;84;20866;-62
2022/02/16 06:20:47;;;;;;;88.85;55.40;;;;;;;-0.38;92.73;97860.50;1713002;83;21064;-61
2022/02/16 06:23:16;;;;;;;96.53;59.75;;;;;;;-0.36;92.70;97866.84;1695044;84;21024;-66
2022/02/16 06:25:43;;;;;;;106.52;63.38;;;;;;;-0.30;92.68;97864.12;1695259;84;20906;-61
2022/02/16 06:28:09;;;;;;;127.70;74.80;;;;;;;-0.24;92.73;97872.45;1695124;84;21069;-62
2022/02/16 06:30:37;;;;;;;129.55;77.53;;;;;;;-0.15;92.69;97876.36;1695147;84;20914;-66
2022/02/16 06:33:06;;;;;;;131.50;79.37;;;;;;;-0.09;92.64;97875.45;1694801;84;21117;-63
2022/02/16 06:35:34;;;;;;;108.87;67.80;;;;;;;-0.04;92.60;97866.87;1694986;84;20893;-62
2022/02/16 06:38:01;;;;;;;245.37;118.17;;;;;;;0.06;92.52;97882.94;1695135;83;20949;-62
2022/02/16 06:40:30;;;;;;;208.35;109.17;;;;;;;0.15;92.40;97880.26;1694570;84;20941;-65
2022/02/16 06:42:58;;;;;;;129.03;81.08;;;;;;;0.22;92.21;97880.96;1694685;84;21005;-65
2022/02/16 06:45:27;;;;;;;109.70;67.32;;;;;;;0.25;92.23;97876.56;1694735;83;21301;-61
2022/02/16 06:47:54;;;;;;;99.92;61.37;;;;;;;0.32;92.23;97876.45;1694648;83;20922;-62
2022/02/16 06:50:22;;;;;;;87.37;57.33;;;;;;;0.38;92.09;97873.70;1695187;83;20971;-69
2022/02/16 06:52:53;;;;;;;115.95;73.35;;;;;;;0.43;91.99;97882.23;1693521;84;20906;-64
2022/02/16 06:55:20;;;;;;;116.33;72.58;;;;;;;0.48;91.90;97881.05;1694606;84;20997;-61
2022/02/16 06:57:48;;;;;;;113.85;76.67;;;;;;;0.55;91.94;97883.05;1694884;83;21128;-62
2022/02/16 07:00:17;;;;;;;130.37;88.27;;;;;;;0.64;91.85;97885.62;1694629;84;21024;-66
2022/02/16 07:02:47;;;;;;;106.05;64.00;;;;;;;0.72;91.74;97887.93;1694633;83;20957;-63
2022/02/16 07:05:16;;;;;;;122.82;74.97;;;;;;;0.79;91.62;97885.98;1694646;84;20933;-62
2022/02/16 07:07:43;;;;;;;158.65;102.27;;;;;;;0.86;91.61;97887.98;1694562;84;20941;-67
2022/02/16 07:10:09;;;;;;;137.62;95.55;;;;;;;0.98;91.59;97886.64;1694874;84;21101;-64
2022/02/16 07:12:38;;;;;;;112.57;78.40;;;;;;;1.07;91.49;97879.47;1694516;84;20997;-64
2022/02/16 07:15:13;;;;;;;93.72;57.50;;;;;;;1.15;91.42;97882.27;1694844;84;21012;-67
2022/02/16 07:17:43;;;;;;;87.75;52.40;;;;;;;1.24;91.33;97873.77;1694333;84;37772;-59
2022/02/16 07:20:13;;;;;;;102.97;59.80;;;;;;;1.33;91.19;97869.72;1716849;83;20914;-63
2022/02/16 07:22:42;;;;;;;88.30;54.77;;;;;;;1.46;91.11;97857.29;1700559;82;21098;-68
2022/02/16 07:30:19;;;;;;;62.08;44.03;;;;;;;1.71;90.21;97848.00;1717021;83;21040;-65
2022/02/16 07:32:53;;;;;;;55.35;38.45;;;;;;;1.77;89.84;97852.83;1718106;83;21556;-60
2022/02/16 07:35:20;;;;;;;70.78;48.17;;;;;;;1.80;89.48;97856.33;1696572;83;21123;-65
2022/02/16 07:37:47;;;;;;;62.48;43.78;;;;;;;1.80;89.33;97861.09;1707919;83;21017;-61
2022/02/16 07:40:16;;;;;;;60.08;42.78;;;;;;;1.81;89.19;97857.42;1723660;82;20902;-65
2022/02/16 07:42:45;;;;;;;64.42;44.38;;;;;;;1.83;89.08;97846.61;1723971;82;20934;-67
2022/02/16 07:45:29;;;;;;;57.83;40.23;;;;;;;1.85;88.98;97840.57;1724071;83;21069;-61
2022/02/16 07:47:56;;;;;;;60.73;44.42;;;;;;;1.89;88.93;97839.05;1710099;83;21127;-62
2022/02/16 07:50:23;;;;;;;52.25;38.70;;;;;;;1.93;88.75;97842.83;1694890;84;20922;-64
2022/02/16 07:53:04;;;;;;;60.40;41.33;;;;;;;1.96;88.47;97845.78;1720041;82;20941;-66
2022/02/16 07:55:34;;;;;;;54.20;35.58;;;;;;;1.96;88.26;97842.34;1723831;82;20902;-65
2022/02/16 07:58:06;;;;;;;77.45;44.60;;;;;;;2.00;88.26;97835.56;1724201;82;21457;-63
2022/02/16 08:00:31;;;;;;;88.30;49.80;;;;;;;2.06;88.27;97831.95;1721483;82;22273;-64
2022/02/16 08:03:03;;;;;;;132.55;78.50;;;;;;;2.13;88.21;97827.30;1723701;82;21398;-65
2022/02/16 08:05:30;;;;;;;122.25;70.17;;;;;;;2.20;88.05;97829.78;1724041;83;20937;-65
2022/02/16 08:07:57;;;;;;;109.67;59.30;;;;;;;2.25;87.91;97829.35;1723738;83;20969;-60
2022/02/16 08:10:25;;;;;;;87.00;51.02;;;;;;;2.29;87.70;97828.33;1717774;83;20905;-65
2022/02/16 08:12:59;;;;;;;88.60;48.17;;;;;;;2.32;87.61;97822.06;1707770;83;21172;-66
2022/02/16 08:15:26;;;;;;;75.15;44.30;;;;;;;2.39;87.63;97813.95;1749723;82;21480;-62
2022/02/16 08:17:53;;;;;;;75.72;42.90;;;;;;;2.45;87.61;97800.56;1746818;81;20947;-62
2022/02/16 08:20:19;;;;;;;75.47;44.88;;;;;;;2.54;87.51;97801.75;1727461;82;21705;-62
2022/02/16 08:23:04;;;;;;;76.42;46.68;;;;;;;2.62;87.31;97801.34;1693504;84;21070;-62
2022/02/16 08:25:31;;;;;;;63.68;42.75;;;;;;;2.69;87.12;97800.65;1717483;81;21060;-62
2022/02/16 08:28:06;;;;;;;76.53;46.77;;;;;;;2.74;86.96;97790.14;1756331;81;20934;-66
2022/02/16 08:30:33;;;;;;;59.75;41.33;;;;;;;2.81;86.87;97793.11;1750369;81;21468;-61
2022/02/16 08:33:00;;;;;;;263.92;56.60;;;;;;;2.86;86.67;97789.22;1762886;81;20943;-64
2022/02/16 08:35:29;;;;;;;42.05;30.27;;;;;;;2.92;86.49;97786.92;1752879;81;21658;-64
2022/02/16 08:37:57;;;;;;;37.67;28.85;;;;;;;2.98;86.26;97788.58;1751931;81;21748;-69
2022/02/16 08:40:24;;;;;;;40.17;28.77;;;;;;;3.05;86.04;97783.89;1752365;80;20957;-65
2022/02/16 08:42:51;;;;;;;51.95;37.63;;;;;;;3.13;85.77;97770.24;1752370;81;21587;-64
2022/02/16 08:45:18;;;;;;;71.28;44.98;;;;;;;3.25;85.67;97776.20;1751774;81;20926;-63
2022/02/16 08:47:45;;;;;;;122.87;63.58;;;;;;;3.43;85.50;97774.02;1742942;81;20914;-63
2022/02/16 08:50:12;;;;;;;73.22;43.60;;;;;;;3.64;85.37;97772.36;1751820;81;21173;-62
2022/02/16 08:52:40;;;;;;;83.55;44.58;;;;;;;3.88;84.87;97774.97;1752256;81;21043;-64
2022/02/16 08:55:08;;;;;;;84.35;47.20;;;;;;;4.08;84.34;97771.14;1772777;80;21074;-63
2022/02/16 08:57:36;;;;;;;68.45;42.85;;;;;;;4.29;83.57;97775.25;1751257;81;21112;-63
2022/02/16 09:00:08;;;;;;;67.80;40.90;;;;;;;4.45;82.86;97769.79;1751506;81;20931;-66
2022/02/16 09:02:37;;;;;;;58.52;39.42;;;;;;;4.60;82.20;97775.20;1752040;81;21008;-65
2022/02/16 09:05:05;;;;;;;58.30;37.90;;;;;;;4.75;81.34;97771.83;1741409;81;21661;-65
2022/02/16 09:07:33;;;;;;;61.85;39.00;;;;;;;4.86;80.69;97772.14;1744379;81;20965;-67
2022/02/16 09:10:07;;;;;;;51.77;35.63;;;;;;;4.97;80.04;97775.09;1751303;81;21460;-67
2022/02/16 09:12:36;;;;;;;55.03;35.58;;;;;;;5.07;79.47;97763.20;1747666;81;20948;-69
2022/02/16 09:15:04;;;;;;;42.23;30.60;;;;;;;5.18;78.86;97762.72;1752499;81;21135;-64
2022/02/16 09:17:32;;;;;;;42.35;26.23;;;;;;;5.24;78.57;97754.50;1753486;81;21433;-64
2022/02/16 09:20:00;;;;;;;44.77;29.90;;;;;;;5.36;77.64;97759.58;1771956;81;21059;-64
2022/02/16 09:22:29;;;;;;;35.52;27.55;;;;;;;5.44;77.67;97753.77;1748241;81;21070;-61
2022/02/16 09:24:55;;;;;;;33.42;24.90;;;;;;;5.53;76.88;97752.95;1773045;80;20959;-62
2022/02/16 09:27:22;;;;;;;35.05;26.52;;;;;;;5.62;75.61;97751.13;1749988;81;21858;-67
2022/02/16 09:29:49;;;;;;;33.63;24.77;;;;;;;5.66;75.32;97746.34;1742820;81;21509;-64
2022/02/16 09:32:17;;;;;;;30.23;23.22;;;;;;;5.76;74.99;97740.24;1750315;80;21581;-63
2022/02/16 09:34:45;;;;;;;31.73;22.80;;;;;;;5.86;73.97;97742.94;1747426;81;21408;-61
2022/02/16 09:37:12;;;;;;;31.52;24.90;;;;;;;5.94;73.19;97749.84;1739772;81;21894;-66
2022/02/16 09:39:39;;;;;;;30.37;22.62;;;;;;;6.00;72.86;97744.81;1734970;81;21185;-63
2022/02/16 09:42:06;;;;;;;34.78;24.30;;;;;;;6.09;72.30;97733.09;1769187;80;21427;-62
2022/02/16 09:44:44;;;;;;;30.68;20.57;;;;;;;6.18;71.79;97726.17;1752578;81;20989;-64
2022/02/16 09:47:11;;;;;;;31.07;21.73;;;;;;;6.26;71.64;97722.97;1763524;80;21094;-61
2022/02/16 09:49:38;;;;;;;30.30;22.02;;;;;;;6.33;71.48;97722.16;1744066;81;21719;-63
2022/02/16 09:52:07;;;;;;;29.52;22.40;;;;;;;6.42;71.12;97716.55;1714498;82;21104;-64
2022/02/16 09:54:33;;;;;;;30.08;21.87;;;;;;;6.50;70.78;97718.64;1692471;83;21028;-61
2022/02/16 09:57:00;;;;;;;29.60;21.45;;;;;;;6.55;70.60;97709.33;1720733;83;21642;-67
2022/02/16 09:59:28;;;;;;;28.55;21.30;;;;;;;6.61;69.79;97704.79;1722157;82;21048;-62
2022/02/16 10:02:01;;;;;;;30.12;22.55;;;;;;;6.62;69.35;97712.49;1722431;82;21563;-62
2022/02/16 10:04:32;;;;;;;29.92;21.80;;;;;;;6.62;68.94;97704.51;1708113;83;21097;-64
2022/02/16 10:06:58;;;;;;;30.10;21.60;;;;;;;6.61;69.01;97689.63;1693330;84;21674;-61
2022/02/16 10:09:31;;;;;;;30.32;20.95;;;;;;;6.64;68.58;97691.72;1697142;82;21075;-62
2022/02/16 10:12:01;;;;;;;32.95;23.52;;;;;;;6.59;68.37;97685.11;1721932;83;21088;-62
2022/02/16 10:14:36;;;;;;;32.05;23.12;;;;;;;6.50;68.26;97683.28;1722011;83;21153;-68
2022/02/16 10:17:22;;;;;;;30.23;21.48;;;;;;;6.42;68.49;97687.29;1709922;83;21098;-64
2022/02/16 10:20:04;;;;;;;35.15;22.60;;;;;;;6.32;68.60;97683.32;1722283;83;20938;-68
2022/02/16 10:22:53;;;;;;;28.83;21.50;;;;;;;6.27;69.00;97682.00;1723116;83;20926;-63
2022/02/16 10:25:28;;;;;;;26.25;19.35;;;;;;;6.29;69.29;97671.88;1719063;82;21038;-67
2022/02/16 10:28:15;;;;;;;25.57;18.90;;;;;;;6.36;69.04;97665.74;1723923;82;21422;-61
2022/02/16 10:30:59;;;;;;;34.78;20.70;;;;;;;6.37;68.52;97664.69;1698601;83;21710;-66
2022/02/16 10:33:30;;;;;;;29.75;20.08;;;;;;;6.29;68.75;97670.55;1694038;84;20961;-65
2022/02/16 10:36:05;;;;;;;30.68;21.87;;;;;;;6.25;69.10;97662.86;1694548;84;20981;-63
2022/02/16 10:38:53;;;;;;;31.55;21.23;;;;;;;6.19;69.37;97659.96;1694692;84;20910;-68
2022/02/16 10:41:22;;;;;;;32.70;20.68;;;;;;;6.09;69.44;97660.77;1696974;83;21004;-67
2022/02/16 10:43:50;;;;;;;32.83;22.00;;;;;;;6.02;69.50;97662.11;1703093;82;21901;-66
2022/02/16 10:46:24;;;;;;;33.02;21.95;;;;;;;5.96;69.67;97655.19;1742140;81;21074;-67
2022/02/16 10:49:16;;;;;;;34.35;21.95;;;;;;;5.92;69.91;97645.64;1707884;82;20997;-65
2022/02/16 10:51:46;;;;;;;86.60;33.08;;;;;;;5.92;69.90;97643.52;1698049;83;20933;-61
2022/02/16 10:54:20;;;;;;;28.10;20.52;;;;;;;5.89;70.19;97650.69;1705124;82;20886;-67
2022/02/16 10:56:50;;;;;;;32.53;22.65;;;;;;;5.87;70.04;97640.86;1706781;83;21145;-66
2022/02/16 10:59:17;;;;;;;30.80;21.60;;;;;;;5.84;70.24;97632.88;1708356;83;21020;-71
2022/02/16 11:01:44;;;;;;;33.35;21.40;;;;;;;5.86;70.34;97632.63;1720639;83;21071;-68
2022/02/16 11:04:14;;;;;;;31.82;21.20;;;;;;;5.86;70.23;97634.77;1723108;82;21064;-65
2022/02/16 11:06:48;;;;;;;40.03;26.35;;;;;;;5.84;69.95;97624.91;1723214;83;21028;-64
2022/02/16 11:09:22;;;;;;;;;;;;;;;5.87;70.14;97627.56;1726043;82;21133;-67
2022/02/16 11:11:51;;;;;;;40.55;24.27;;;;;;;6.00;70.45;97622.52;1723078;82;20190;-66
2022/02/16 11:14:24;;;;;;;41.33;27.17;;;;;;;6.16;70.02;97617.94;1723393;83;21678;-66
2022/02/16 11:16:51;;;;;;;40.28;26.00;;;;;;;6.30;69.86;97608.31;1723034;83;21469;-64
2022/02/16 11:19:26;;;;;;;43.73;25.85;;;;;;;6.36;69.36;97603.23;1724673;82;21497;-63
2022/02/16 11:22:04;;;;;;;39.45;27.37;;;;;;;6.32;69.27;97608.84;1724635;82;21109;-62
2022/02/16 11:24:35;;;;;;;36.95;24.65;;;;;;;6.24;69.06;97605.42;1724601;82;20985;-65
2022/02/16 11:27:31;;;;;;;87.90;30.72;;;;;;;6.13;69.08;97599.86;1724479;82;21029;-62
2022/02/16 11:30:06;;;;;;;35.10;23.50;;;;;;;6.05;69.17;97603.09;1722322;82;21033;-64
2022/02/16 11:32:38;;;;;;;35.98;23.95;;;;;;;6.04;69.54;97598.83;1724722;83;20890;-66
2022/02/16 11:35:26;;;;;;;33.75;24.02;;;;;;;6.16;69.42;97590.02;1724397;82;21086;-65
2022/02/16 11:38:08;;;;;;;35.60;23.87;;;;;;;6.22;69.33;97590.25;1721946;83;20929;-71
2022/02/16 11:40:56;;;;;;;32.63;23.83;;;;;;;6.30;69.22;97589.70;1711402;83;21714;-66